Data for 06/18/2010

Time Sea-Level Adjusted Pressure Absolute Pressure Temperature Relative Humidity Dew Point   
(mb) (inHg) (mb) (inHg) (C) (F) (%) (C) (F)
00:05 1020 30.12 849 25.07 7.4 45.3 60 0.3 32.5
00:10 1020 30.12 849 25.07 7.4 45.4 61 0.3 32.6
00:15 1020 30.12 849 25.07 7.4 45.3 61 0.3 32.6
00:20 1020 30.12 849 25.07 7.4 45.3 61 0.3 32.6
00:25 1019 30.09 849 25.07 7.4 45.2 61 0.3 32.6
00:30 1019 30.09 849 25.07 7.3 45.1 60 0.1 32.2
00:35 1019 30.09 849 25.07 7.3 45.2 59 -0.1 31.8
00:40 1019 30.09 849 25.07 7.4 45.3 60 0.1 32.1
00:45 1020 30.12 849 25.07 7.4 45.3 60 0.2 32.4
00:50 1020 30.12 849 25.07 7.4 45.2 61 0.3 32.6
00:55 1020 30.12 849 25.07 7.3 45.1 62 0.4 32.7
01:00 1020 30.12 849 25.07 7.2 45 62 0.4 32.8
01:05 1020 30.12 849 25.07 7.2 45 62 0.4 32.7
01:10 1019 30.09 849 25.07 7.2 44.9 62 0.5 32.9
01:15 1019 30.09 849 25.07 7.1 44.8 63 0.5 32.9
01:20 1019 30.09 849 25.07 7.1 44.7 63 0.5 33
01:25 1019 30.09 848 25.04 7.1 44.7 63 0.5 32.9
01:30 1019 30.09 848 25.04 7 44.7 63 0.4 32.7
01:35 1019 30.09 848 25.04 7.1 44.8 61 0.1 32.2
01:40 1019 30.09 849 25.07 7.2 45 63 0.7 33.3
01:45 1019 30.09 849 25.07 6.9 44.4 65 0.7 33.3
01:50 1019 30.09 848 25.04 6.9 44.4 63 0.3 32.6
01:55 1019 30.09 849 25.07 7.1 44.7 64 0.7 33.2
02:00 1019 30.09 849 25.07 7 44.6 65 0.8 33.5
02:05 1019 30.09 849 25.07 6.9 44.5 65 0.9 33.6
02:10 1019 30.09 849 25.07 6.9 44.4 65 0.8 33.4
02:15 1019 30.09 849 25.07 6.8 44.3 66 0.8 33.5
02:20 1019 30.09 849 25.07 6.8 44.2 65 0.8 33.4
02:25 1019 30.09 849 25.07 6.8 44.3 66 1 33.8
02:30 1019 30.09 849 25.07 6.8 44.2 67 1.1 33.9
02:35 1019 30.09 849 25.07 6.8 44.2 67 1.1 33.9
02:40 1019 30.09 849 25.07 6.8 44.2 67 1.1 33.9
02:45 1019 30.09 849 25.07 6.8 44.2 67 1.1 33.9
02:50 1019 30.09 849 25.07 6.7 44.1 67 1.1 33.9
02:55 1019 30.09 849 25.07 6.6 43.9 67 0.9 33.6
03:00 1019 30.09 849 25.07 6.6 43.8 66 0.8 33.5
03:05 1019 30.09 849 25.07 6.6 43.8 66 0.7 33.3
03:10 1019 30.09 849 25.07 6.5 43.7 67 0.8 33.4
03:15 1019 30.09 849 25.07 6.5 43.6 66 0.6 33.1
03:20 1019 30.09 849 25.07 6.4 43.6 67 0.8 33.4
03:25 1019 30.09 849 25.07 6.4 43.5 66 0.4 32.8
03:30 1019 30.09 849 25.07 6.4 43.5 65 0.3 32.6
03:35 1019 30.09 849 25.07 6.4 43.5 66 0.5 32.9
03:40 1019 30.09 849 25.07 6.4 43.4 66 0.6 33
03:45 1019 30.09 849 25.07 6.1 42.9 69 0.8 33.5
03:50 1019 30.09 849 25.07 5.7 42.3 67 0.1 32.1
03:55 1019 30.09 849 25.07 5.5 42 67 -0.1 31.7
04:00 1019 30.09 849 25.07 5.5 41.9 67 -0.1 31.9
04:05 1019 30.09 849 25.07 5.5 41.8 67 -0.3 31.5
04:10 1019 30.09 849 25.07 5.4 41.8 67 -0.2 31.6
04:15 1019 30.09 849 25.07 5.2 41.4 68 -0.3 31.5
04:20 1019 30.09 849 25.07 5.1 41.2 67 -0.4 31.2
04:25 1019 30.09 849 25.07 5.1 41.3 66 -0.6 31
04:30 1019 30.09 849 25.07 5.1 41.3 67 -0.5 31.2
04:35 1019 30.09 849 25.07 5 41.1 68 -0.3 31.4
04:40 1020 30.12 849 25.07 4.9 40.8 68 -0.6 31
04:45 1020 30.12 849 25.07 4.8 40.6 67 -0.9 30.4
04:50 1019 30.09 849 25.07 5 41 66 -0.9 30.4
04:55 1020 30.12 849 25.07 5.1 41.2 65 -0.9 30.4
05:00 1020 30.12 849 25.07 5.1 41.1 67 -0.5 31.1
05:05 1020 30.12 849 25.07 4.6 40.4 70 -0.3 31.5
05:10 1020 30.12 849 25.07 4.1 39.3 73 -0.4 31.3
05:15 1020 30.12 849 25.07 4 39.1 73 -0.4 31.3
05:20 1020 30.12 849 25.07 3.9 39.1 72 -0.6 30.8
05:25 1020 30.12 849 25.07 4 39.2 70 -1 30.2
05:30 1020 30.12 849 25.07 4.2 39.5 72 -0.3 31.4
05:35 1020 30.12 849 25.07 4 39.2 71 -0.8 30.6
05:40 1020 30.12 849 25.07 4 39.2 71 -0.7 30.8
05:45 1020 30.12 849 25.07 4 39.2 70 -0.9 30.4
05:50 1020 30.12 849 25.07 4.2 39.5 70 -0.7 30.7
05:55 1020 30.12 849 25.07 4.4 39.8 68 -1.1 30
06:00 1020 30.12 849 25.07 4.4 39.9 68 -1.1 30.1
06:05 1020 30.12 849 25.07 4.4 39.8 68 -1 30.2
06:10 1020 30.12 849 25.07 4.3 39.8 69 -0.8 30.6
06:15 1020 30.12 849 25.07 4.3 39.7 68 -1 30.2
06:20 1020 30.12 849 25.07 4.3 39.7 69 -0.8 30.5
06:25 1020 30.12 849 25.07 4.2 39.6 69 -0.9 30.4
06:30 1020 30.12 849 25.07 4.3 39.8 68 -1 30.2
06:35 1020 30.12 849 25.07 4.4 40 68 -0.9 30.4
06:40 1020 30.12 849 25.07 4.5 40.1 69 -0.8 30.6
06:45 1020 30.12 849 25.07 4.5 40 69 -0.7 30.8
06:50 1020 30.12 849 25.07 4.6 40.2 68 -0.8 30.5
06:55 1020 30.12 849 25.07 4.7 40.5 68 -0.7 30.7
07:00 1020 30.12 849 25.07 4.7 40.4 68 -0.7 30.8
07:05 1020 30.12 849 25.07 4.8 40.6 66 -0.9 30.4
07:10 1020 30.12 849 25.07 5.3 41.6 64 -0.9 30.3
07:15 1020 30.12 849 25.07 5.9 42.6 62 -0.7 30.7
07:20 1020 30.12 849 25.07 6.2 43.2 61 -0.8 30.6
07:25 1020 30.12 849 25.07 6.7 44.1 60 -0.5 31
07:30 1020 30.12 849 25.07 7.1 44.9 57 -0.7 30.7
07:35 1020 30.12 849 25.07 7.6 45.7 55 -0.9 30.3
07:40 1020 30.12 849 25.07 8.2 46.7 53 -0.9 30.4
07:45 1020 30.12 849 25.07 8.3 47 52 -1 30.2
07:50 1020 30.12 849 25.07 8.8 47.9 51 -0.7 30.7
07:55 1020 30.12 850 25.1 9.3 48.7 50 -0.7 30.8
08:00 1020 30.12 850 25.1 9.8 49.6 49 -0.5 31.1
08:05 1020 30.12 850 25.1 9.9 49.8 48 -0.5 31.1
08:10 1020 30.12 850 25.1 10 50 48 -0.5 31.1
08:15 1021 30.15 850 25.1 10.4 50.7 46 -0.8 30.5
08:20 1021 30.15 850 25.1 10.7 51.2 48 -0 32
08:25 1021 30.15 850 25.1 10.5 50.9 46 -0.5 31.2
08:30 1021 30.15 850 25.1 10.4 50.8 47 -0.2 31.6
08:35 1021 30.15 850 25.1 10.3 50.5 47 -0.4 31.3
08:40 1021 30.15 850 25.1 10.8 51.5 45 -0.6 30.9
08:45 1021 30.15 850 25.1 10.8 51.4 46 -0.2 31.7
08:50 1021 30.15 850 25.1 10.6 51.1 47 -0.2 31.6
08:55 1021 30.15 850 25.1 11.2 52.1 45 -0.3 31.4
09:00 1021 30.15 850 25.1 11.5 52.8 44 -0.3 31.4
09:05 1021 30.15 850 25.1 11.5 52.6 45 -0 32
09:10 1021 30.15 850 25.1 11.9 53.4 47 0.9 33.6
09:15 1020 30.12 850 25.1 10.7 51.3 49 0.5 33
09:20 1021 30.15 850 25.1 11.1 51.9 47 0.2 32.4
09:25 1021 30.15 850 25.1 10.7 51.3 50 0.7 33.2
09:30 1021 30.15 850 25.1 11.1 52 46 0.1 32.2
09:35 1021 30.15 850 25.1 11.7 53.1 46 0.5 33
09:40 1021 30.15 850 25.1 11.5 52.7 44 -0.2 31.6
09:45 1021 30.15 850 25.1 12.1 53.8 42 -0.4 31.3
09:50 1021 30.15 850 25.1 12.5 54.5 44 0.5 32.9
09:55 1021 30.15 850 25.1 12.2 53.9 43 -0.1 31.8
10:00 1021 30.15 850 25.1 12.2 53.9 43 -0 32
10:05 1021 30.15 850 25.1 12.6 54.7 41 -0.1 31.8
10:10 1021 30.15 850 25.1 12.5 54.5 43 0.4 32.8
10:15 1021 30.15 850 25.1 13 55.4 41 0.1 32.3
10:20 1021 30.15 850 25.1 13.2 55.8 40 -0 32
10:25 1021 30.15 850 25.1 13.4 56.1 39 -0.3 31.5
10:30 1020 30.12 850 25.1 13.3 56 37 -1.1 30
10:35 1021 30.15 850 25.1 13.5 56.3 36 -1.4 29.5
10:40 1020 30.12 850 25.1 13.6 56.5 36 -1 30.2
10:45 1020 30.12 849 25.07 13.8 56.9 36 -0.8 30.5
10:50 1020 30.12 850 25.1 13.8 56.8 35 -1.4 29.5
10:55 1020 30.12 849 25.07 13.8 56.8 35 -1.1 29.9
11:00 1020 30.12 849 25.07 13.2 55.8 37 -1.2 29.8
11:05 1020 30.12 850 25.1 13.9 57.1 36 -0.9 30.4
11:10 1020 30.12 850 25.1 14.5 58 34 -1.3 29.7
11:15 1020 30.12 850 25.1 14.8 58.6 33 -1.2 29.9
11:20 1020 30.12 850 25.1 14.5 58 35 -0.6 30.9
11:25 1020 30.12 850 25.1 14.3 57.7 35 -0.9 30.4
11:30 1020 30.12 850 25.1 14.3 57.7 37 0 32
11:35 1020 30.12 850 25.1 14.1 57.3 34 -1.3 29.6
11:40 1020 30.12 850 25.1 13.7 56.6 39 0.1 32.3
11:45 1020 30.12 849 25.07 14.3 57.8 34 -1.3 29.7
11:50 1020 30.12 849 25.07 15 59 34 -0.6 30.9
11:55 1020 30.12 849 25.07 15 58.9 36 0.2 32.3
12:00 1020 30.12 849 25.07 14.9 58.8 36 -0 32
12:05 1020 30.12 849 25.07 14.9 58.8 35 -0.5 31.2
12:10 1020 30.12 849 25.07 14.9 58.9 35 -0.2 31.6
12:15 1020 30.12 849 25.07 15.3 59.6 35 0.1 32.2
12:20 1020 30.12 849 25.07 15.5 59.8 35 0.2 32.3
12:25 1020 30.12 849 25.07 16 60.8 33 -0.1 31.8
12:30 1020 30.12 849 25.07 16.2 61.1 34 0.2 32.4
12:35 1020 30.12 849 25.07 15.2 59.3 37 0.8 33.4
12:40 1020 30.12 849 25.07 14.2 57.6 37 -0 31.9
12:45 1020 30.12 849 25.07 15 59.1 37 0.5 32.9
12:50 1020 30.12 849 25.07 15.8 60.5 35 0.5 32.9
12:55 1020 30.12 849 25.07 16.2 61.1 33 0.1 32.1
13:00 1020 30.12 849 25.07 16 60.7 34 0.1 32.2
13:05 1020 30.12 849 25.07 16 60.7 35 0.6 33.2
13:10 1020 30.12 849 25.07 16.2 61.1 33 0.2 32.3
13:15 1020 30.12 849 25.07 14.9 58.8 37 0.5 32.8
13:20 1020 30.12 849 25.07 14.5 58.1 38 0.5 32.9
13:25 1020 30.12 849 25.07 15.5 59.9 34 -0.4 31.3
13:30 1020 30.12 849 25.07 16.4 61.6 33 0.1 32.3
13:35 1020 30.12 849 25.07 16.4 61.5 35 1 33.7
13:40 1020 30.12 849 25.07 16.8 62.2 32 0 32
13:45 1020 30.12 849 25.07 15.9 60.6 36 1.1 33.9
13:50 1020 30.12 849 25.07 15.4 59.8 38 1.2 34.2
13:55 1020 30.12 849 25.07 15.5 59.8 35 0.2 32.4
14:00 1020 30.12 849 25.07 16.8 62.3 34 0.9 33.6
14:05 1020 30.12 849 25.07 16.2 61.2 36 1.2 34.2
14:10 1020 30.12 849 25.07 15.4 59.7 38 1.3 34.3
14:15 1020 30.12 849 25.07 16.2 61.1 37 1.5 34.6
14:20 1019 30.09 849 25.07 15.7 60.3 37 1 33.8
14:25 1019 30.09 849 25.07 15.7 60.3 38 1.4 34.5
14:30 1019 30.09 849 25.07 16.6 61.8 36 1.6 34.9
14:35 1019 30.09 849 25.07 16 60.8 39 2.1 35.8
14:40 1019 30.09 849 25.07 15.3 59.5 38 1.2 34.2
14:45 1019 30.09 849 25.07 15.8 60.4 36 1 33.8
14:50 1019 30.09 849 25.07 16.1 61 38 1.9 35.5
14:55 1019 30.09 849 25.07 15.7 60.3 38 1.4 34.4
15:00 1019 30.09 848 25.04 15.9 60.6 40 2.3 36.2
15:05 1019 30.09 848 25.04 15.9 60.7 38 1.6 34.9
15:10 1019 30.09 848 25.04 16.1 61 37 1.7 35.1
15:15 1019 30.09 848 25.04 17.3 63.1 33 1.1 34.1
15:20 1019 30.09 848 25.04 17.3 63.1 36 2.1 35.8
15:25 1019 30.09 848 25.04 17 62.6 37 2.2 36
15:30 1019 30.09 848 25.04 16.9 62.4 36 1.8 35.3
15:35 1019 30.09 848 25.04 16.5 61.8 38 2.2 35.9
15:40 1019 30.09 848 25.04 17.2 62.9 35 1.5 34.7
15:45 1019 30.09 848 25.04 17.1 62.7 35 1.4 34.6
15:50 1019 30.09 848 25.04 17.3 63.1 33 1.1 33.9
15:55 1019 30.09 848 25.04 17.7 63.8 32 0.9 33.6
16:00 1019 30.09 848 25.04 18.1 64.6 32 1.5 34.7
16:05 1019 30.09 848 25.04 17.5 63.5 34 1.6 34.9
16:10 1019 30.09 848 25.04 17.9 64.3 32 0.9 33.7
16:15 1019 30.09 848 25.04 17.5 63.5 33 1.2 34.1
16:20 1019 30.09 848 25.04 17.3 63.2 32 0.5 32.9
16:25 1019 30.09 848 25.04 18 64.5 30 0.4 32.8
16:30 1019 30.09 848 25.04 18.4 65 31 1 33.8
16:35 1019 30.09 848 25.04 18 64.5 30 0.3 32.5
16:40 1019 30.09 848 25.04 18.6 65.5 29 0.4 32.7
16:45 1019 30.09 848 25.04 19.1 66.3 28 0.4 32.7
16:50 1019 30.09 848 25.04 19 66.2 30 1.1 34
16:55 1019 30.09 848 25.04 18.5 65.3 32 1.4 34.6
17:00 1019 30.09 848 25.04 18 64.4 31 0.8 33.4
17:05 1019 30.09 848 25.04 18.8 65.8 30 1 33.9
17:10 1019 30.09 848 25.04 18.7 65.7 30 1 33.9
17:15 1019 30.09 848 25.04 19 66.2 29 0.7 33.3
17:20 1018 30.06 848 25.04 19.3 66.7 30 1.2 34.2
17:25 1018 30.06 848 25.04 18.9 66 29 0.7 33.2
17:30 1018 30.06 848 25.04 19 66.1 30 1.2 34.2
17:35 1018 30.06 848 25.04 18.6 65.5 31 1.1 34
17:40 1018 30.06 848 25.04 18.8 65.9 32 1.7 35.1
17:45 1018 30.06 848 25.04 18.6 65.4 30 1 33.7
17:50 1018 30.06 847 25.01 18.3 65 30 0.6 33.1
17:55 1018 30.06 848 25.04 18.5 65.3 30 0.6 33.1
18:00 1018 30.06 848 25.04 18.5 65.3 30 0.6 33.1
18:05 1018 30.06 847 25.01 17.7 63.9 31 0.7 33.2
18:10 1018 30.06 847 25.01 18 64.4 29 0 32
18:15 1018 30.06 847 25.01 18.6 65.6 29 0.3 32.6
18:20 1018 30.06 847 25.01 18.7 65.6 29 0.3 32.6
18:25 1018 30.06 847 25.01 18.4 65 31 1 33.9
18:30 1018 30.06 847 25.01 18.6 65.4 30 0.7 33.2
18:35 1018 30.06 847 25.01 18.2 64.8 31 0.8 33.4
18:40 1018 30.06 847 25.01 17.7 63.8 31 0.3 32.5
18:45 1018 30.06 847 25.01 18.1 64.6 30 0.6 33.1
18:50 1018 30.06 847 25.01 18.4 65 30 0.8 33.4
18:55 1018 30.06 847 25.01 18.3 65 29 -0.1 31.9
19:00 1018 30.06 847 25.01 18.3 64.9 29 0.1 32.1
19:05 1018 30.06 847 25.01 18.5 65.2 28 -0.3 31.4
19:10 1018 30.06 847 25.01 18.4 65.1 30 0.6 33
19:15 1018 30.06 847 25.01 18.4 65.1 28 -0.2 31.6
19:20 1018 30.06 847 25.01 18.6 65.5 27 -0.4 31.2
19:25 1018 30.06 847 25.01 18.7 65.7 27 -0.6 30.8
19:30 1018 30.06 847 25.01 18.6 65.5 28 -0.2 31.6
19:35 1018 30.06 847 25.01 17.6 63.7 29 -0.6 30.9
19:40 1018 30.06 847 25.01 17.4 63.4 29 -0.5 31.1
19:45 1018 30.06 847 25.01 17.2 63 30 -0.6 31
19:50 1018 30.06 847 25.01 17 62.6 31 -0 32
19:55 1018 30.06 847 25.01 16.8 62.3 32 0.4 32.6
20:00 1018 30.06 847 25.01 16.9 62.5 32 0.3 32.6
20:05 1018 30.06 847 25.01 16.7 62.1 32 0 32
20:10 1018 30.06 847 25.01 16.7 62 33 0.4 32.8
20:15 1018 30.06 847 25.01 16.6 61.9 32 -0.1 31.8
20:20 1018 30.06 847 25.01 16.4 61.6 32 -0.1 31.9
20:25 1018 30.06 847 25.01 16.4 61.5 32 -0.1 31.8
20:30 1018 30.06 847 25.01 16.3 61.3 32 -0.4 31.3
20:35 1018 30.06 847 25.01 16.2 61.1 33 -0.1 31.8
20:40 1018 30.06 847 25.01 16.1 61 32 -0.3 31.5
20:45 1018 30.06 847 25.01 16.1 61 33 -0 32
20:50 1018 30.06 847 25.01 16.1 61 33 0.1 32.2
20:55 1018 30.06 847 25.01 16 60.7 35 0.5 32.8
21:00 1018 30.06 847 25.01 15.8 60.5 36 0.8 33.5
21:05 1018 30.06 847 25.01 15.7 60.3 38 1.5 34.7
21:10 1018 30.06 848 25.04 15.2 59.3 43 2.6 36.8
21:15 1018 30.06 848 25.04 14.7 58.5 44 2.6 36.6
21:20 1018 30.06 848 25.04 14.4 57.9 48 3.7 38.6
21:25 1018 30.06 848 25.04 13.9 57.1 53 4.6 40.2
21:30 1018 30.06 848 25.04 13.2 55.7 55 4.4 40
21:35 1019 30.09 848 25.04 12.8 55.1 55 4 39.2
21:40 1019 30.09 848 25.04 12.7 54.8 54 3.7 38.7
21:45 1019 30.09 848 25.04 12.8 55 53 3.5 38.3
21:50 1019 30.09 848 25.04 12.8 55 53 3.4 38.1
21:55 1019 30.09 848 25.04 12.8 55.1 53 3.6 38.5
22:00 1019 30.09 848 25.04 12.6 54.6 54 3.5 38.3
22:05 1019 30.09 848 25.04 12.6 54.7 51 2.9 37.1
22:10 1019 30.09 848 25.04 12.9 55.2 52 3.4 38.2
22:15 1019 30.09 848 25.04 12.7 54.9 58 4.8 40.6
22:20 1019 30.09 848 25.04 12.3 54.2 61 5.1 41.1
22:25 1019 30.09 848 25.04 12.1 53.7 62 5.1 41.2
22:30 1019 30.09 848 25.04 11.9 53.4 63 5.1 41.1
22:35 1019 30.09 848 25.04 11.8 53.2 64 5.2 41.3
22:40 1019 30.09 848 25.04 11.6 52.9 65 5.2 41.3
22:45 1019 30.09 848 25.04 11.4 52.5 65 5.2 41.4
22:50 1019 30.09 848 25.04 11.3 52.3 66 5.2 41.3
22:55 1019 30.09 848 25.04 11.1 52 66 5.1 41.2
23:00 1019 30.09 848 25.04 11.1 51.9 66 5 41.1
23:05 1019 30.09 848 25.04 11 51.8 66 5 41
23:10 1019 30.09 848 25.04 10.9 51.7 67 5 41
23:15 1019 30.09 848 25.04 10.9 51.6 66 4.9 40.8
23:20 1019 30.09 848 25.04 10.9 51.6 66 4.9 40.8
23:25 1019 30.09 848 25.04 10.8 51.5 67 4.9 40.9
23:30 1019 30.09 848 25.04 10.7 51.3 67 4.9 40.8
23:35 1019 30.09 848 25.04 10.7 51.2 67 4.8 40.7
23:40 1019 30.09 848 25.04 10.6 51.2 67 4.9 40.8
23:45 1019 30.09 848 25.04 10.6 51.1 67 4.8 40.7
23:50 1019 30.09 848 25.04 10.6 51.1 67 4.8 40.7
23:55 1019 30.09 848 25.04 10.6 51.1 67 4.8 40.6
24:00 1019 30.09 848 25.04 10.5 51 68 4.9 40.9